Time;durP1;ratioP1;P1;durP2;ratioP2;P2;SDS_P1;SDS_P2;PMS_P1;PMS_P2;Temp;Humidity;BMP_temperature;BMP_pressure;BME280_temperature;BME280_humidity;BME280_pressure;Samples;Min_cycle;Max_cycle;Signal;HPM_P1;HPM_P2
2022/04/27 00:00:28;;;;;;;12.30;9.30;;;;;;;;;;4989465;28;20121;-76
2022/04/27 00:02:55;;;;;;;21.05;9.55;;;;;;;;;;4986021;28;20049;-75
2022/04/27 00:05:21;;;;;;;15.32;8.68;;;;;;;;;;4970005;28;20066;-76
2022/04/27 00:07:47;;;;;;;17.33;9.40;;;;;;;;;;4987802;28;20134;-75
2022/04/27 00:10:14;;;;;;;15.18;9.38;;;;;;;;;;4971301;28;20037;-75
2022/04/27 00:12:40;;;;;;;16.08;9.68;;;;;;;;;;4987167;28;20046;-75
2022/04/27 00:15:07;;;;;;;16.80;10.52;;;;;;;;;;4987827;28;20042;-78
2022/04/27 00:17:33;;;;;;;14.57;8.68;;;;;;;;;;4992344;28;20034;-76
2022/04/27 00:19:59;;;;;;;14.18;8.80;;;;;;;;;;4988179;28;20049;-75
2022/04/27 00:22:26;;;;;;;14.70;8.82;;;;;;;;;;5007797;28;20065;-75
2022/04/27 00:24:52;;;;;;;13.27;9.18;;;;;;;;;;4958774;28;20060;-76
2022/04/27 00:27:18;;;;;;;13.88;8.15;;;;;;;;;;4954092;28;20433;-75
2022/04/27 00:29:44;;;;;;;14.55;8.80;;;;;;;;;;4987257;28;20049;-75
2022/04/27 00:32:10;;;;;;;14.27;8.50;;;;;;;;;;4953721;28;20052;-75
2022/04/27 00:34:36;;;;;;;15.93;8.63;;;;;;;;;;5007843;28;20086;-75
2022/04/27 00:37:02;;;;;;;13.32;9.23;;;;;;;;;;4989023;28;20050;-76
2022/04/27 00:39:28;;;;;;;17.15;8.35;;;;;;;;;;4986692;28;20049;-76
2022/04/27 00:42:00;;;;;;;17.48;8.52;;;;;;;;;;4985144;28;20125;-75
2022/04/27 00:44:27;;;;;;;12.27;7.97;;;;;;;;;;5003740;28;20207;-75
2022/04/27 00:46:53;;;;;;;16.40;8.52;;;;;;;;;;4968876;28;20050;-75
2022/04/27 00:49:19;;;;;;;17.48;7.88;;;;;;;;;;4954594;28;20493;-75
2022/04/27 00:51:45;;;;;;;16.35;7.15;;;;;;;;;;4971644;28;20390;-76
2022/04/27 00:54:12;;;;;;;13.93;7.70;;;;;;;;;;4969452;28;20144;-75
2022/04/27 00:56:39;;;;;;;13.07;7.22;;;;;;;;;;4989507;28;20393;-75
2022/04/27 00:59:05;;;;;;;12.82;7.28;;;;;;;;;;4968837;28;20049;-75
2022/04/27 01:01:32;;;;;;;11.95;7.38;;;;;;;;;;4986732;28;20057;-75
2022/04/27 01:03:58;;;;;;;16.05;7.38;;;;;;;;;;4984386;28;20054;-74
2022/04/27 01:06:24;;;;;;;15.43;7.15;;;;;;;;;;4986801;28;20379;-76
2022/04/27 01:08:51;;;;;;;13.73;7.45;;;;;;;;;;4970022;28;20037;-75
2022/04/27 01:11:17;;;;;;;15.38;7.90;;;;;;;;;;4985347;28;20560;-75
2022/04/27 01:13:43;;;;;;;12.43;7.88;;;;;;;;;;4985291;28;20156;-77
2022/04/27 01:16:10;;;;;;;13.07;7.50;;;;;;;;;;4968054;28;20046;-74
2022/04/27 01:18:36;;;;;;;12.80;7.57;;;;;;;;;;4986865;28;20116;-78
2022/04/27 01:21:03;;;;;;;11.43;7.38;;;;;;;;;;4986400;28;20060;-74
2022/04/27 01:23:29;;;;;;;14.23;7.97;;;;;;;;;;4983466;28;20057;-77
2022/04/27 01:25:57;;;;;;;22.50;9.27;;;;;;;;;;5010354;28;20397;-79
2022/04/27 01:28:29;;;;;;;14.90;8.32;;;;;;;;;;4969078;28;20039;-75
2022/04/27 01:31:14;;;;;;;17.08;8.90;;;;;;;;;;4972271;28;20261;-77
2022/04/27 01:33:40;;;;;;;16.67;8.23;;;;;;;;;;4974601;28;20053;-78
2022/04/27 01:36:07;;;;;;;15.45;8.10;;;;;;;;;;4987432;28;20482;-74
2022/04/27 01:38:40;;;;;;;13.13;8.00;;;;;;;;;;4971715;28;20435;-75
2022/04/27 01:41:07;;;;;;;13.02;8.23;;;;;;;;;;5002476;28;20101;-75
2022/04/27 01:43:34;;;;;;;13.23;7.47;;;;;;;;;;4975624;28;20615;-74
2022/04/27 01:46:00;;;;;;;17.20;8.18;;;;;;;;;;5003971;28;20065;-74
2022/04/27 01:48:27;;;;;;;12.57;7.70;;;;;;;;;;4972075;28;20049;-75
2022/04/27 01:50:53;;;;;;;12.02;7.97;;;;;;;;;;4986958;28;20397;-75
2022/04/27 01:56:04;;;;;;;13.57;7.90;;;;;;;;;;5006285;28;20081;-74
2022/04/27 01:58:31;;;;;;;13.80;7.57;;;;;;;;;;4989777;28;20112;-75
2022/04/27 02:00:57;;;;;;;16.33;7.80;;;;;;;;;;4972178;28;20054;-75
2022/04/27 02:03:24;;;;;;;13.38;7.90;;;;;;;;;;5003347;28;20069;-74
2022/04/27 02:05:52;;;;;;;12.77;7.72;;;;;;;;;;4990523;28;20072;-77
2022/04/27 02:08:18;;;;;;;12.77;8.07;;;;;;;;;;4987912;28;20749;-79
2022/04/27 02:10:44;;;;;;;13.35;7.63;;;;;;;;;;4990014;28;20100;-79
2022/04/27 02:13:11;;;;;;;14.05;7.85;;;;;;;;;;5007104;28;20050;-74
2022/04/27 02:15:37;;;;;;;12.93;7.65;;;;;;;;;;4989926;28;20157;-74
2022/04/27 02:18:04;;;;;;;14.52;7.35;;;;;;;;;;4990280;28;20050;-74
2022/04/27 02:20:30;;;;;;;14.25;8.02;;;;;;;;;;4987233;28;20633;-75
2022/04/27 02:22:56;;;;;;;11.95;7.47;;;;;;;;;;4973379;28;20089;-74
2022/04/27 02:25:23;;;;;;;13.73;7.97;;;;;;;;;;4976168;28;20038;-76
2022/04/27 02:27:49;;;;;;;16.73;7.80;;;;;;;;;;4968773;28;20069;-74
2022/04/27 02:30:16;;;;;;;12.18;7.30;;;;;;;;;;4971719;28;20049;-77
2022/04/27 02:32:42;;;;;;;14.50;8.10;;;;;;;;;;4987450;28;20060;-79
2022/04/27 02:35:09;;;;;;;12.20;6.88;;;;;;;;;;4990132;28;20049;-75
2022/04/27 02:37:36;;;;;;;11.13;7.55;;;;;;;;;;4988467;28;20129;-75
2022/04/27 02:40:02;;;;;;;12.00;7.45;;;;;;;;;;4987908;28;20144;-75
2022/04/27 02:42:29;;;;;;;13.40;7.30;;;;;;;;;;4972141;28;20053;-75
2022/04/27 02:44:56;;;;;;;9.13;6.32;;;;;;;;;;4989581;28;20455;-75
2022/04/27 02:47:22;;;;;;;12.82;6.63;;;;;;;;;;4991074;28;20846;-76
2022/04/27 02:52:34;;;;;;;13.65;6.75;;;;;;;;;;4986417;28;20054;-75
2022/04/27 02:55:00;;;;;;;12.45;6.95;;;;;;;;;;4984208;28;20034;-75
2022/04/27 02:57:26;;;;;;;11.57;6.63;;;;;;;;;;4974941;28;20073;-75
2022/04/27 02:59:52;;;;;;;12.70;6.28;;;;;;;;;;5005551;28;20053;-79
2022/04/27 03:02:18;;;;;;;14.23;6.78;;;;;;;;;;4984269;28;20038;-75
2022/04/27 03:04:44;;;;;;;8.48;6.10;;;;;;;;;;4988704;28;20046;-79
2022/04/27 03:07:10;;;;;;;9.52;5.75;;;;;;;;;;4988930;28;20096;-75
2022/04/27 03:09:36;;;;;;;13.13;6.13;;;;;;;;;;4989555;28;20128;-75
2022/04/27 03:12:02;;;;;;;9.05;6.30;;;;;;;;;;4984237;28;20041;-76
2022/04/27 03:14:29;;;;;;;12.15;6.20;;;;;;;;;;4970711;28;20473;-75
2022/04/27 03:16:55;;;;;;;9.48;5.82;;;;;;;;;;4972016;28;20180;-75
2022/04/27 03:19:22;;;;;;;12.43;6.25;;;;;;;;;;4987952;28;20064;-75
2022/04/27 03:21:48;;;;;;;10.68;6.25;;;;;;;;;;4999068;28;20107;-79
2022/04/27 03:24:14;;;;;;;11.80;5.57;;;;;;;;;;4974773;28;20046;-75
2022/04/27 03:26:40;;;;;;;9.60;5.32;;;;;;;;;;5006318;28;20501;-79
2022/04/27 03:29:07;;;;;;;10.68;5.88;;;;;;;;;;4991384;28;20057;-74
2022/04/27 03:31:33;;;;;;;10.05;5.63;;;;;;;;;;4969338;28;20579;-79
2022/04/27 03:33:59;;;;;;;11.25;5.43;;;;;;;;;;5011195;28;20050;-75
2022/04/27 03:36:26;;;;;;;8.07;5.00;;;;;;;;;;4988141;28;20079;-75
2022/04/27 03:38:52;;;;;;;6.55;5.30;;;;;;;;;;4988644;28;20489;-78
2022/04/27 03:41:20;;;;;;;7.38;4.78;;;;;;;;;;5005441;28;20056;-78
2022/04/27 03:43:47;;;;;;;7.53;4.85;;;;;;;;;;4989992;28;20046;-75
2022/04/27 03:46:13;;;;;;;8.77;4.93;;;;;;;;;;4971217;28;20049;-75
2022/04/27 03:48:40;;;;;;;8.38;5.00;;;;;;;;;;4988021;28;20056;-74
2022/04/27 03:51:06;;;;;;;11.10;4.45;;;;;;;;;;4988582;28;20504;-75
2022/04/27 03:53:32;;;;;;;12.05;4.70;;;;;;;;;;4996255;28;20050;-75
2022/04/27 03:55:58;;;;;;;9.23;4.72;;;;;;;;;;5002933;28;20528;-75
2022/04/27 03:58:24;;;;;;;7.05;5.07;;;;;;;;;;4994006;28;20042;-75
2022/04/27 04:00:50;;;;;;;10.10;5.22;;;;;;;;;;4971328;28;20080;-79
2022/04/27 04:03:16;;;;;;;9.38;4.97;;;;;;;;;;4987733;28;20038;-75
2022/04/27 04:05:43;;;;;;;6.82;4.57;;;;;;;;;;5013110;28;20500;-75
2022/04/27 04:08:09;;;;;;;7.40;4.80;;;;;;;;;;4972726;28;20044;-75
2022/04/27 04:10:35;;;;;;;10.65;5.20;;;;;;;;;;5005068;28;20176;-75
2022/04/27 04:13:02;;;;;;;6.82;4.95;;;;;;;;;;4988616;28;20046;-75
2022/04/27 04:15:28;;;;;;;11.27;4.90;;;;;;;;;;4986746;28;20168;-75
2022/04/27 04:17:54;;;;;;;7.88;4.47;;;;;;;;;;4968760;28;20053;-75
2022/04/27 04:20:20;;;;;;;11.55;4.95;;;;;;;;;;5003624;28;20494;-75
2022/04/27 04:22:47;;;;;;;5.97;4.75;;;;;;;;;;5005003;28;20053;-78
2022/04/27 04:30:43;;;;;;;8.30;4.53;;;;;;;;;;4988306;28;20081;-75
2022/04/27 04:33:09;;;;;;;5.97;4.38;;;;;;;;;;4969946;28;20052;-75
2022/04/27 04:35:36;;;;;;;5.80;4.40;;;;;;;;;;4986704;28;20049;-74
2022/04/27 04:38:04;;;;;;;6.95;4.68;;;;;;;;;;4993664;28;20073;-78
2022/04/27 04:40:30;;;;;;;8.85;5.32;;;;;;;;;;4999229;28;20062;-73
2022/04/27 04:42:56;;;;;;;7.72;4.30;;;;;;;;;;4988306;28;20064;-76
2022/04/27 04:45:26;;;;;;;8.27;5.38;;;;;;;;;;4986666;28;20050;-74
2022/04/27 04:47:52;;;;;;;7.80;4.70;;;;;;;;;;4985666;28;20437;-78
2022/04/27 04:50:18;;;;;;;6.55;4.80;;;;;;;;;;4987722;28;20038;-74
2022/04/27 04:52:48;;;;;;;8.00;4.50;;;;;;;;;;4990536;28;20045;-74
2022/04/27 04:55:14;;;;;;;9.02;3.85;;;;;;;;;;4987710;28;20217;-73
2022/04/27 04:57:40;;;;;;;9.75;4.25;;;;;;;;;;4988569;28;20416;-74
2022/04/27 05:00:09;;;;;;;4.68;3.75;;;;;;;;;;4985696;28;20379;-73
2022/04/27 05:02:35;;;;;;;5.80;3.83;;;;;;;;;;4969568;28;20100;-74
2022/04/27 05:05:05;;;;;;;8.88;3.80;;;;;;;;;;4954779;28;20136;-75
2022/04/27 05:07:34;;;;;;;6.78;3.83;;;;;;;;;;4971430;28;21733;-78
2022/04/27 05:10:00;;;;;;;6.28;4.07;;;;;;;;;;4991623;28;20038;-74
2022/04/27 05:12:27;;;;;;;5.45;3.38;;;;;;;;;;5010585;28;20054;-74
2022/04/27 05:14:53;;;;;;;5.60;3.47;;;;;;;;;;5013767;28;20539;-74
2022/04/27 05:17:20;;;;;;;6.00;3.42;;;;;;;;;;5005072;28;20046;-76
2022/04/27 05:19:48;;;;;;;8.32;3.70;;;;;;;;;;5002385;28;20076;-74
2022/04/27 05:22:15;;;;;;;10.60;4.03;;;;;;;;;;4973245;28;20116;-76
2022/04/27 05:24:41;;;;;;;5.55;3.90;;;;;;;;;;5009910;28;20081;-76
2022/04/27 05:27:07;;;;;;;7.60;3.80;;;;;;;;;;4990573;28;20397;-74
2022/04/27 05:32:17;;;;;;;7.82;3.53;;;;;;;;;;4988040;28;20509;-74
2022/04/27 05:34:44;;;;;;;5.40;3.55;;;;;;;;;;4959540;28;20045;-74
2022/04/27 05:37:10;;;;;;;6.78;3.53;;;;;;;;;;4971601;28;20058;-77
2022/04/27 05:39:36;;;;;;;9.05;4.80;;;;;;;;;;4974695;28;20125;-74
2022/04/27 05:42:02;;;;;;;7.60;3.85;;;;;;;;;;4959229;28;20050;-74
2022/04/27 05:44:28;;;;;;;5.53;3.75;;;;;;;;;;4991171;28;20073;-74
2022/04/27 05:46:55;;;;;;;11.75;4.22;;;;;;;;;;4960406;28;21738;-74
2022/04/27 05:49:22;;;;;;;4.90;3.60;;;;;;;;;;4987888;28;20046;-73
2022/04/27 05:51:48;;;;;;;10.45;3.97;;;;;;;;;;4976031;28;20069;-73
2022/04/27 05:54:14;;;;;;;4.05;3.35;;;;;;;;;;4989920;28;20057;-73
2022/04/27 05:56:41;;;;;;;8.35;3.95;;;;;;;;;;4990389;28;20111;-73
2022/04/27 05:59:11;;;;;;;6.05;3.05;;;;;;;;;;4987550;28;20137;-75
2022/04/27 06:01:37;;;;;;;6.15;2.42;;;;;;;;;;4991603;28;20046;-74
2022/04/27 06:04:03;;;;;;;6.70;2.97;;;;;;;;;;4986722;28;20053;-74
2022/04/27 06:06:30;;;;;;;6.55;3.95;;;;;;;;;;4958702;28;20073;-74
2022/04/27 06:08:56;;;;;;;6.28;3.90;;;;;;;;;;4990300;28;20038;-74
2022/04/27 06:11:22;;;;;;;5.93;3.53;;;;;;;;;;4986856;28;20046;-75
2022/04/27 06:13:48;;;;;;;8.68;3.53;;;;;;;;;;4980266;28;20056;-75
2022/04/27 06:16:15;;;;;;;8.13;3.17;;;;;;;;;;4984169;28;20066;-79
2022/04/27 06:18:41;;;;;;;5.32;3.60;;;;;;;;;;4975201;28;20048;-72
2022/04/27 06:21:10;;;;;;;7.28;3.53;;;;;;;;;;4970466;28;20050;-73
2022/04/27 06:23:38;;;;;;;8.40;4.30;;;;;;;;;;4990254;28;20049;-74
2022/04/27 06:26:07;;;;;;;7.53;3.40;;;;;;;;;;4988621;28;20049;-74
2022/04/27 06:28:33;;;;;;;7.00;3.72;;;;;;;;;;4957844;28;20042;-76
2022/04/27 06:31:00;;;;;;;6.75;3.53;;;;;;;;;;4957415;28;20180;-77
2022/04/27 06:33:26;;;;;;;6.13;3.83;;;;;;;;;;4999906;28;20053;-74
2022/04/27 06:35:52;;;;;;;6.32;4.00;;;;;;;;;;4969379;28;20045;-73
2022/04/27 06:38:18;;;;;;;7.85;3.60;;;;;;;;;;4971356;28;20045;-75
2022/04/27 06:40:44;;;;;;;5.07;3.55;;;;;;;;;;4970776;28;20133;-80
2022/04/27 06:43:10;;;;;;;6.22;3.20;;;;;;;;;;4957198;28;20054;-75
2022/04/27 06:45:36;;;;;;;6.22;3.13;;;;;;;;;;4958113;28;20053;-75
2022/04/27 06:48:03;;;;;;;5.68;3.45;;;;;;;;;;4956729;28;20544;-72
2022/04/27 06:50:29;;;;;;;9.02;3.25;;;;;;;;;;4984169;28;20051;-78
2022/04/27 06:52:59;;;;;;;6.93;2.92;;;;;;;;;;4977111;28;20041;-73
2022/04/27 06:55:25;;;;;;;8.15;4.10;;;;;;;;;;4975154;28;20532;-75
2022/04/27 06:57:52;;;;;;;7.50;3.22;;;;;;;;;;4990518;28;20069;-74
2022/04/27 07:00:18;;;;;;;5.82;3.00;;;;;;;;;;4976740;28;20528;-75
2022/04/27 07:02:44;;;;;;;7.20;4.03;;;;;;;;;;4993954;28;20038;-79
2022/04/27 07:05:16;;;;;;;7.25;2.80;;;;;;;;;;4993595;28;20366;-78
2022/04/27 07:07:42;;;;;;;7.15;2.40;;;;;;;;;;4973422;28;20046;-75
2022/04/27 07:10:08;;;;;;;6.65;2.38;;;;;;;;;;4987214;28;20132;-75
2022/04/27 07:12:34;;;;;;;4.40;2.33;;;;;;;;;;4990126;28;20045;-75
2022/04/27 07:15:00;;;;;;;6.97;2.38;;;;;;;;;;4989459;28;20121;-75
2022/04/27 07:17:26;;;;;;;10.50;2.83;;;;;;;;;;4993447;28;20084;-75
2022/04/27 07:19:52;;;;;;;10.63;3.65;;;;;;;;;;4975415;28;20536;-75
2022/04/27 07:22:18;;;;;;;4.30;2.22;;;;;;;;;;4960161;28;20053;-75
2022/04/27 07:24:45;;;;;;;9.70;2.58;;;;;;;;;;4993730;28;20068;-74
2022/04/27 07:27:11;;;;;;;7.78;2.70;;;;;;;;;;4973399;28;20061;-75
2022/04/27 07:29:37;;;;;;;9.50;3.10;;;;;;;;;;4990029;28;20173;-75
2022/04/27 07:32:04;;;;;;;6.93;2.05;;;;;;;;;;4976031;28;20410;-80
2022/04/27 07:34:30;;;;;;;7.40;1.90;;;;;;;;;;4992792;28;20046;-75
2022/04/27 07:37:01;;;;;;;5.35;2.08;;;;;;;;;;4972268;28;20481;-75
2022/04/27 07:39:28;;;;;;;6.47;1.80;;;;;;;;;;4993564;28;20066;-74
2022/04/27 07:41:54;;;;;;;6.13;1.70;;;;;;;;;;4975113;28;20096;-75
2022/04/27 07:44:20;;;;;;;7.68;2.10;;;;;;;;;;4971389;28;20053;-75
2022/04/27 07:46:49;;;;;;;7.60;2.30;;;;;;;;;;4974383;28;20050;-74
2022/04/27 07:49:15;;;;;;;7.63;2.00;;;;;;;;;;4992754;28;20041;-75
2022/04/27 07:51:41;;;;;;;8.00;2.25;;;;;;;;;;4972175;28;20394;-75
2022/04/27 07:54:07;;;;;;;9.55;2.38;;;;;;;;;;4988856;28;20045;-74
2022/04/27 07:56:34;;;;;;;10.55;2.78;;;;;;;;;;4972056;28;20077;-77
2022/04/27 07:59:00;;;;;;;6.65;2.25;;;;;;;;;;4972044;28;20049;-76
2022/04/27 08:01:26;;;;;;;5.63;2.03;;;;;;;;;;4991246;28;20533;-76
2022/04/27 08:03:52;;;;;;;9.30;2.58;;;;;;;;;;4987846;28;20521;-77
2022/04/27 08:06:18;;;;;;;9.55;3.70;;;;;;;;;;4972000;28;20478;-76
2022/04/27 08:08:44;;;;;;;9.10;2.22;;;;;;;;;;4967410;28;20631;-77
2022/04/27 08:11:13;;;;;;;8.23;2.40;;;;;;;;;;4972398;28;20052;-76
2022/04/27 08:13:39;;;;;;;7.78;2.60;;;;;;;;;;4982756;28;20149;-74
2022/04/27 08:16:07;;;;;;;10.73;2.78;;;;;;;;;;4958817;28;20050;-81
2022/04/27 08:18:35;;;;;;;6.60;2.20;;;;;;;;;;4988684;28;20062;-75
2022/04/27 08:21:14;;;;;;;12.25;2.70;;;;;;;;;;4986923;28;20061;-76
2022/04/27 08:23:41;;;;;;;8.77;2.70;;;;;;;;;;4969248;28;20054;-74
2022/04/27 08:26:07;;;;;;;8.20;3.03;;;;;;;;;;5008726;28;20077;-81
2022/04/27 08:28:34;;;;;;;11.40;2.55;;;;;;;;;;4989149;28;20486;-75
2022/04/27 08:31:00;;;;;;;12.25;3.00;;;;;;;;;;5006617;28;20049;-74
2022/04/27 08:33:26;;;;;;;5.40;2.40;;;;;;;;;;4984679;28;20086;-77
2022/04/27 08:35:57;;;;;;;9.13;2.80;;;;;;;;;;4988964;28;20139;-75
2022/04/27 08:38:24;;;;;;;10.32;3.30;;;;;;;;;;4981497;28;20046;-74
2022/04/27 08:40:50;;;;;;;7.78;2.67;;;;;;;;;;4965344;28;20058;-74
2022/04/27 08:43:16;;;;;;;15.63;2.90;;;;;;;;;;4968695;28;20144;-77
2022/04/27 08:45:44;;;;;;;15.90;3.88;;;;;;;;;;4991306;28;20054;-76
2022/04/27 08:48:12;;;;;;;15.82;2.90;;;;;;;;;;4990241;28;20042;-80
2022/04/27 08:50:38;;;;;;;12.98;3.15;;;;;;;;;;4986147;28;20046;-76
2022/04/27 08:53:04;;;;;;;9.80;2.38;;;;;;;;;;4984675;28;20121;-78
2022/04/27 08:55:31;;;;;;;14.10;3.20;;;;;;;;;;4995458;28;20203;-75
2022/04/27 08:58:10;;;;;;;14.25;3.00;;;;;;;;;;4986896;28;20049;-78
2022/04/27 09:00:36;;;;;;;11.35;2.25;;;;;;;;;;4991080;28;20532;-78
2022/04/27 09:03:21;;;;;;;11.93;3.00;;;;;;;;;;4993424;28;20497;-76
2022/04/27 09:05:52;;;;;;;12.98;2.42;;;;;;;;;;5012562;28;20058;-75
2022/04/27 09:08:18;;;;;;;18.15;4.15;;;;;;;;;;4993382;28;20078;-75
2022/04/27 09:10:44;;;;;;;13.40;2.72;;;;;;;;;;4992139;28;20430;-76
2022/04/27 09:13:10;;;;;;;12.13;2.67;;;;;;;;;;4984766;28;20200;-81
2022/04/27 09:15:37;;;;;;;12.27;3.45;;;;;;;;;;4987151;28;20060;-80
2022/04/27 09:21:00;;;;;;;10.55;2.72;;;;;;;;;;4991355;28;20153;-76
2022/04/27 09:23:41;;;;;;;12.05;2.80;;;;;;;;;;4991128;28;20050;-77
2022/04/27 09:26:19;;;;;;;18.67;3.63;;;;;;;;;;4988188;28;20065;-81
2022/04/27 09:28:53;;;;;;;12.13;2.65;;;;;;;;;;4988762;28;20069;-76
2022/04/27 09:31:33;;;;;;;17.80;2.70;;;;;;;;;;4986694;28;20539;-79
2022/04/27 09:34:00;;;;;;;14.07;3.40;;;;;;;;;;5011083;28;20547;-75
2022/04/27 09:36:26;;;;;;;14.68;2.83;;;;;;;;;;4989482;28;20065;-76
2022/04/27 09:38:54;;;;;;;11.13;2.47;;;;;;;;;;4991378;28;20065;-75
2022/04/27 09:41:40;;;;;;;9.93;2.70;;;;;;;;;;4989326;28;20391;-76
2022/04/27 09:44:06;;;;;;;15.65;2.88;;;;;;;;;;4988574;28;20125;-76
2022/04/27 09:46:38;;;;;;;11.52;2.67;;;;;;;;;;4973079;28;20816;-77
2022/04/27 09:49:11;;;;;;;17.35;3.50;;;;;;;;;;4974190;28;20147;-76
2022/04/27 09:51:58;;;;;;;13.27;2.42;;;;;;;;;;4994317;28;20561;-76
2022/04/27 09:54:24;;;;;;;13.40;2.40;;;;;;;;;;4981624;28;20136;-76
2022/04/27 09:56:55;;;;;;;6.93;1.80;;;;;;;;;;4975794;28;20053;-75
2022/04/27 09:59:22;;;;;;;12.40;2.58;;;;;;;;;;4952475;28;20046;-76
2022/04/27 10:01:53;;;;;;;14.60;2.78;;;;;;;;;;4991367;28;20513;-74
2022/04/27 10:04:20;;;;;;;13.63;2.63;;;;;;;;;;4976773;28;20099;-75
2022/04/27 10:06:47;;;;;;;10.13;2.83;;;;;;;;;;4958300;28;20105;-78
2022/04/27 10:09:13;;;;;;;13.35;2.33;;;;;;;;;;4988348;28;20120;-76
2022/04/27 10:11:40;;;;;;;14.25;2.60;;;;;;;;;;4990312;28;20082;-77
2022/04/27 10:14:07;;;;;;;11.93;2.50;;;;;;;;;;4979651;28;20076;-78
2022/04/27 10:16:35;;;;;;;13.40;3.42;;;;;;;;;;4993917;28;20049;-78
2022/04/27 10:19:01;;;;;;;14.93;3.00;;;;;;;;;;4993248;28;20041;-79
2022/04/27 10:21:39;;;;;;;18.55;3.28;;;;;;;;;;4986315;28;20094;-75
2022/04/27 10:24:06;;;;;;;9.63;2.30;;;;;;;;;;4989177;28;20050;-78
2022/04/27 10:26:32;;;;;;;14.95;2.85;;;;;;;;;;4987962;28;20619;-79
2022/04/27 10:29:00;;;;;;;13.40;2.83;;;;;;;;;;4989997;28;20740;-77
2022/04/27 10:31:46;;;;;;;11.02;2.38;;;;;;;;;;5005309;28;20371;-80
2022/04/27 10:34:19;;;;;;;12.73;2.70;;;;;;;;;;4986794;28;20054;-77
2022/04/27 10:36:47;;;;;;;13.50;2.88;;;;;;;;;;4971452;28;20061;-77
2022/04/27 10:39:16;;;;;;;14.77;2.85;;;;;;;;;;4987118;28;20405;-85
2022/04/27 10:41:43;;;;;;;13.63;2.90;;;;;;;;;;4969917;28;20042;-76
2022/04/27 10:44:09;;;;;;;9.00;1.92;;;;;;;;;;4974455;28;20041;-74
2022/04/27 10:46:39;;;;;;;13.20;2.50;;;;;;;;;;5005066;28;20057;-74
2022/04/27 10:49:23;;;;;;;12.23;3.13;;;;;;;;;;4970442;28;20058;-78
2022/04/27 10:52:08;;;;;;;9.20;1.85;;;;;;;;;;4971098;28;20038;-77
2022/04/27 10:54:37;;;;;;;10.35;2.40;;;;;;;;;;5002969;28;20048;-77
2022/04/27 10:57:15;;;;;;;11.27;2.60;;;;;;;;;;5006775;28;20046;-77
2022/04/27 10:59:45;;;;;;;11.68;3.30;;;;;;;;;;4991826;28;20101;-78
2022/04/27 11:02:30;;;;;;;13.70;2.30;;;;;;;;;;4978076;28;20088;-75
2022/04/27 11:04:56;;;;;;;10.00;2.00;;;;;;;;;;4977315;28;20050;-73
2022/04/27 11:07:34;;;;;;;9.90;2.63;;;;;;;;;;5009579;28;20146;-75
2022/04/27 11:10:17;;;;;;;13.95;2.72;;;;;;;;;;4988228;28;20057;-76
2022/04/27 11:12:48;;;;;;;10.48;2.92;;;;;;;;;;4991924;28;20044;-77
2022/04/27 11:15:15;;;;;;;11.93;2.53;;;;;;;;;;5004207;28;20043;-77
2022/04/27 11:17:41;;;;;;;11.77;3.25;;;;;;;;;;4994996;28;20065;-82
2022/04/27 11:20:28;;;;;;;12.55;2.70;;;;;;;;;;5006717;28;20050;-76
2022/04/27 11:22:54;;;;;;;11.30;3.00;;;;;;;;;;4978634;28;20532;-79
2022/04/27 11:25:24;;;;;;;12.30;3.17;;;;;;;;;;4989932;28;20456;-77
2022/04/27 11:27:50;;;;;;;10.63;2.70;;;;;;;;;;4989820;28;20489;-83
2022/04/27 11:30:18;;;;;;;12.20;2.67;;;;;;;;;;4987759;28;20600;-78
2022/04/27 11:32:48;;;;;;;9.32;2.40;;;;;;;;;;4984851;28;20446;-78
2022/04/27 11:35:14;;;;;;;11.52;2.78;;;;;;;;;;4990809;28;20084;-77
2022/04/27 11:37:40;;;;;;;12.32;2.72;;;;;;;;;;4975810;28;20088;-79
2022/04/27 11:40:17;;;;;;;13.07;2.63;;;;;;;;;;4956082;28;20128;-81
2022/04/27 11:42:46;;;;;;;9.43;2.28;;;;;;;;;;4992924;28;20052;-78
2022/04/27 11:45:26;;;;;;;10.25;2.55;;;;;;;;;;4966248;28;20053;-78
2022/04/27 11:48:11;;;;;;;11.68;2.40;;;;;;;;;;4989762;28;20174;-77
2022/04/27 11:50:38;;;;;;;12.20;3.22;;;;;;;;;;4975635;28;20137;-77
2022/04/27 11:53:07;;;;;;;10.85;2.55;;;;;;;;;;4990807;28;20057;-81
2022/04/27 11:55:33;;;;;;;7.97;2.13;;;;;;;;;;4998188;28;20151;-80
2022/04/27 11:58:00;;;;;;;;;;;;;;;;;;5007487;28;20042;-80
2022/04/27 12:00:27;;;;;;;10.80;2.40;;;;;;;;;;4998095;28;19925;-80
2022/04/27 12:02:55;;;;;;;14.07;2.70;;;;;;;;;;5010565;28;20100;-78
2022/04/27 12:05:51;;;;;;;13.50;2.50;;;;;;;;;;4988720;28;20134;-78
2022/04/27 12:08:21;;;;;;;13.87;2.47;;;;;;;;;;4972061;28;20061;-78
2022/04/27 12:10:49;;;;;;;10.70;2.58;;;;;;;;;;5003366;28;20437;-75
2022/04/27 12:13:16;;;;;;;10.95;2.83;;;;;;;;;;4990903;28;20482;-75
2022/04/27 12:15:43;;;;;;;10.02;2.13;;;;;;;;;;4989422;28;20491;-76
2022/04/27 12:18:16;;;;;;;10.38;2.63;;;;;;;;;;5005476;28;20946;-74
2022/04/27 12:20:44;;;;;;;10.00;3.38;;;;;;;;;;5007336;28;20057;-75
2022/04/27 12:23:12;;;;;;;11.45;2.83;;;;;;;;;;4993123;28;20038;-75
2022/04/27 12:25:40;;;;;;;10.93;2.22;;;;;;;;;;4997830;28;20548;-74
2022/04/27 12:28:07;;;;;;;10.77;2.30;;;;;;;;;;5005473;28;20085;-78
2022/04/27 12:30:53;;;;;;;9.52;2.40;;;;;;;;;;4993340;28;20454;-75
2022/04/27 12:33:22;;;;;;;11.18;2.22;;;;;;;;;;4989010;28;20460;-77
2022/04/27 12:38:37;;;;;;;8.55;2.45;;;;;;;;;;4987982;28;20393;-74
2022/04/27 12:41:04;;;;;;;10.48;2.25;;;;;;;;;;4987902;28;20486;-75
2022/04/27 12:43:32;;;;;;;15.10;2.50;;;;;;;;;;5004994;28;20046;-77
2022/04/27 12:45:58;;;;;;;;;;;;;;;;;;4989754;28;20062;-76
2022/04/27 12:48:29;;;;;;;17.13;3.22;;;;;;;;;;4972634;28;19929;-75
2022/04/27 12:50:55;;;;;;;13.40;3.03;;;;;;;;;;4992408;28;20504;-75
2022/04/27 12:53:21;;;;;;;12.55;2.78;;;;;;;;;;4987721;28;20092;-75
2022/04/27 12:55:59;;;;;;;10.85;3.13;;;;;;;;;;5003771;28;20054;-75
2022/04/27 12:58:25;;;;;;;11.15;3.03;;;;;;;;;;4989597;28;20366;-76
2022/04/27 13:00:52;;;;;;;13.98;2.88;;;;;;;;;;4990061;28;20053;-76
2022/04/27 13:03:18;;;;;;;13.18;2.85;;;;;;;;;;4989734;28;20075;-76
2022/04/27 13:05:46;;;;;;;15.20;3.35;;;;;;;;;;4980389;28;20085;-77
2022/04/27 13:08:12;;;;;;;11.73;2.58;;;;;;;;;;4976095;28;20133;-77
2022/04/27 13:13:24;;;;;;;11.45;2.47;;;;;;;;;;5000497;28;20045;-78
2022/04/27 13:15:51;;;;;;;6.88;2.33;;;;;;;;;;5006708;28;20058;-77
2022/04/27 13:18:17;;;;;;;12.57;2.55;;;;;;;;;;5007047;28;20038;-77
2022/04/27 13:20:44;;;;;;;12.38;3.53;;;;;;;;;;5006717;28;20462;-78
2022/04/27 13:23:11;;;;;;;15.93;2.97;;;;;;;;;;5005091;28;20043;-77
2022/04/27 13:25:37;;;;;;;14.88;3.05;;;;;;;;;;5004901;28;20085;-76
2022/04/27 13:28:04;;;;;;;9.43;2.53;;;;;;;;;;5016425;28;20482;-80
2022/04/27 13:30:30;;;;;;;11.02;2.80;;;;;;;;;;4988682;28;20126;-76
2022/04/27 13:32:58;;;;;;;8.75;2.20;;;;;;;;;;4971337;28;20112;-76
2022/04/27 13:35:24;;;;;;;8.07;2.80;;;;;;;;;;5007849;28;20084;-79
2022/04/27 13:37:50;;;;;;;10.35;3.20;;;;;;;;;;4991421;28;20552;-82
2022/04/27 13:40:17;;;;;;;11.60;2.30;;;;;;;;;;4993537;28;20045;-78
2022/04/27 13:42:43;;;;;;;9.85;2.53;;;;;;;;;;4996108;28;20054;-79
2022/04/27 13:45:14;;;;;;;11.85;2.42;;;;;;;;;;5009383;28;20137;-80
2022/04/27 13:47:40;;;;;;;;;;;;;;;;;;4981519;28;20142;-78
2022/04/27 13:50:07;;;;;;;11.52;2.40;;;;;;;;;;5001595;28;19925;-83
2022/04/27 13:52:33;;;;;;;12.50;2.35;;;;;;;;;;5002562;28;20049;-83
2022/04/27 13:55:00;;;;;;;17.27;3.38;;;;;;;;;;5006390;28;20057;-79
2022/04/27 13:57:26;;;;;;;57.42;6.60;;;;;;;;;;4996951;28;20467;-81
2022/04/27 13:59:52;;;;;;;9.33;2.47;;;;;;;;;;5006074;28;20452;-79
2022/04/27 14:02:19;;;;;;;11.50;2.97;;;;;;;;;;5010563;28;20053;-82
2022/04/27 14:04:44;;;;;;;;;;;;;;;;;;4996563;28;20048;-80
2022/04/27 14:07:11;;;;;;;;;;;;;;;;;;4992630;28;20012;-79
2022/04/27 14:09:36;;;;;;;;;;;;;;;;;;4993030;28;20005;-80
2022/04/27 14:14:47;;;;;;;;;;;;;;;;;;4997034;28;19964;-80
2022/04/27 14:19:58;;;;;;;;;;;;;;;;;;4993608;28;19929;-86
2022/04/27 14:22:24;;;;;;;;;;;;;;;;;;4982273;28;19922;-82
2022/04/27 14:24:50;;;;;;;;;;;;;;;;;;4991799;28;19925;-80
2022/04/27 14:27:16;;;;;;;;;;;;;;;;;;4989559;28;19936;-80
2022/04/27 14:29:42;;;;;;;;;;;;;;;;;;4985947;28;20472;-79
2022/04/27 14:32:08;;;;;;;;;;;;;;;;;;4989979;28;20007;-78
2022/04/27 14:34:34;;;;;;;;;;;;;;;;;;4987571;28;19928;-78
2022/04/27 14:37:00;;;;;;;;;;;;;;;;;;4991093;28;20049;-78
2022/04/27 14:39:26;;;;;;;;;;;;;;;;;;4989578;28;19926;-80
2022/04/27 14:41:52;;;;;;;;;;;;;;;;;;4976545;28;19925;-80
2022/04/27 14:44:20;;;;;;;;;;;;;;;;;;4993094;28;19936;-82
2022/04/27 14:46:46;;;;;;;;;;;;;;;;;;4991638;28;19925;-80
2022/04/27 14:49:12;;;;;;;;;;;;;;;;;;4989195;28;20364;-82
2022/04/27 14:51:38;;;;;;;;;;;;;;;;;;5011743;28;20366;-82
2022/04/27 14:54:03;;;;;;;;;;;;;;;;;;4996816;28;19921;-88
2022/04/27 14:56:29;;;;;;;;;;;;;;;;;;4992175;28;19921;-84
2022/04/27 14:58:55;;;;;;;;;;;;;;;;;;4987802;28;20349;-81
2022/04/27 15:01:21;;;;;;;;;;;;;;;;;;4990760;28;20284;-84
2022/04/27 15:03:47;;;;;;;;;;;;;;;;;;5009710;28;20016;-83
2022/04/27 15:06:14;;;;;;;;;;;;;;;;;;4975719;28;19921;-82
2022/04/27 15:08:40;;;;;;;;;;;;;;;;;;4987831;28;20012;-80
2022/04/27 15:11:07;;;;;;;;;;;;;;;;;;4998260;28;20058;-83
2022/04/27 15:13:33;;;;;;;;;;;;;;;;;;4986151;28;19935;-83
2022/04/27 15:15:59;;;;;;;;;;;;;;;;;;4988940;28;19922;-81